Time;durP1;ratioP1;P1;durP2;ratioP2;P2;SDS_P1;SDS_P2;PMS_P1;PMS_P2;Temp;Humidity;BMP_temperature;BMP_pressure;BME280_temperature;BME280_humidity;BME280_pressure;Samples;Min_cycle;Max_cycle;Signal;HPM_P1;HPM_P2
2023/06/28 00:02:50;;;;;;;;;;;20.80;68.60;;;;;;6251714;28;1599;-74
2023/06/28 00:05:52;;;;;;;;;;;20.80;68.00;;;;;;6234938;28;1604;-75
2023/06/28 00:08:54;;;;;;;;;;;20.80;68.30;;;;;;6217833;28;2971;-76
2023/06/28 00:11:56;;;;;;;;;;;20.80;68.30;;;;;;6231875;28;1722;-74
2023/06/28 00:15:00;;;;;;;;;;;20.80;68.30;;;;;;6234962;28;1873;-76
2023/06/28 00:18:02;;;;;;;;;;;20.70;67.80;;;;;;6229495;28;1046;-75
2023/06/28 00:21:04;;;;;;;;;;;20.80;68.10;;;;;;6216916;28;1612;-77
2023/06/28 00:24:06;;;;;;;;;;;20.80;68.70;;;;;;6241748;28;1976;-74
2023/06/28 00:27:08;;;;;;;;;;;20.70;68.70;;;;;;6228330;28;1757;-76
2023/06/28 00:30:12;;;;;;;;;;;20.60;69.30;;;;;;6228769;28;1910;-75
2023/06/28 00:33:19;;;;;;;;;;;20.70;69.90;;;;;;6229107;28;1797;-76
2023/06/28 00:36:21;;;;;;;;;;;20.60;69.20;;;;;;6253441;28;1024;-73
2023/06/28 00:39:23;;;;;;;;;;;20.50;69.50;;;;;;6253149;28;1098;-75
2023/06/28 00:42:24;;;;;;;;;;;20.50;68.70;;;;;;6253329;28;1055;-75
2023/06/28 00:45:27;;;;;;;;;;;20.50;68.60;;;;;;6249772;28;1491;-74
2023/06/28 00:48:29;;;;;;;;;;;20.50;68.70;;;;;;6252805;28;1981;-75
2023/06/28 00:51:32;;;;;;;;;;;20.50;68.30;;;;;;6252802;28;1133;-75
2023/06/28 00:54:34;;;;;;;;;;;20.50;68.20;;;;;;6232637;28;1737;-73
2023/06/28 00:57:35;;;;;;;;;;;20.50;68.40;;;;;;6235944;28;1615;-73
2023/06/28 01:00:38;;;;;;;;;;;20.60;68.30;;;;;;6252483;28;1104;-74
2023/06/28 01:03:40;;;;;;;;;;;20.60;68.40;;;;;;6250450;28;1606;-74
2023/06/28 01:06:46;;;;;;;;;;;20.50;67.90;;;;;;6252270;28;1112;-75
2023/06/28 01:09:48;;;;;;;;;;;20.60;67.70;;;;;;6252502;28;1950;-75
2023/06/28 01:12:50;;;;;;;;;;;20.60;68.10;;;;;;6251466;28;1714;-74
2023/06/28 01:15:53;;;;;;;;;;;20.50;68.00;;;;;;6227712;28;1983;-74
2023/06/28 01:18:55;;;;;;;;;;;20.60;68.30;;;;;;6226591;28;1612;-74
2023/06/28 01:21:59;;;;;;;;;;;20.60;68.30;;;;;;6227697;28;1108;-75
2023/06/28 01:25:02;;;;;;;;;;;20.50;68.60;;;;;;6241242;28;1774;-75
2023/06/28 01:28:04;;;;;;;;;;;20.50;69.50;;;;;;6250662;28;1910;-73
2023/06/28 01:31:07;;;;;;;;;;;20.50;68.60;;;;;;6251238;28;1658;-76
2023/06/28 01:34:09;;;;;;;;;;;20.50;69.50;;;;;;6240814;28;1669;-75
2023/06/28 01:37:10;;;;;;;;;;;20.50;69.50;;;;;;6227189;28;1063;-74
2023/06/28 01:40:14;;;;;;;;;;;20.50;70.00;;;;;;6227148;28;1055;-75
2023/06/28 01:43:16;;;;;;;;;;;20.60;70.70;;;;;;6224926;28;1786;-75
2023/06/28 01:46:18;;;;;;;;;;;20.40;71.30;;;;;;6226806;28;1039;-74
2023/06/28 01:49:19;;;;;;;;;;;20.20;72.20;;;;;;6237202;28;1981;-75
2023/06/28 01:52:21;;;;;;;;;;;20.40;72.50;;;;;;6250335;28;1737;-76
2023/06/28 01:55:24;;;;;;;;;;;20.30;73.30;;;;;;6229680;28;1638;-74
2023/06/28 01:58:26;;;;;;;;;;;20.50;73.10;;;;;;6226660;28;1045;-74
2023/06/28 02:01:28;;;;;;;;;;;20.50;72.60;;;;;;6227036;28;1050;-75
2023/06/28 02:04:29;;;;;;;;;;;20.30;73.00;;;;;;6235892;28;1742;-73
2023/06/28 02:07:31;;;;;;;;;;;20.40;72.90;;;;;;6237463;28;2662;-76
2023/06/28 02:10:34;;;;;;;;;;;20.40;72.50;;;;;;6234211;28;1911;-74
2023/06/28 02:13:36;;;;;;;;;;;20.40;72.60;;;;;;6249523;28;1108;-74
2023/06/28 02:16:38;;;;;;;;;;;20.40;73.80;;;;;;6249438;28;1382;-73
2023/06/28 02:19:39;;;;;;;;;;;20.40;76.40;;;;;;6250559;28;1063;-73
2023/06/28 02:22:41;;;;;;;;;;;20.40;77.30;;;;;;6250572;28;1050;-74
2023/06/28 02:25:44;;;;;;;;;;;20.30;77.30;;;;;;6250414;28;997;-74
2023/06/28 02:28:46;;;;;;;;;;;20.30;77.70;;;;;;6248237;28;1992;-74
2023/06/28 02:31:49;;;;;;;;;;;20.20;78.10;;;;;;6249123;28;1362;-75
2023/06/28 02:34:50;;;;;;;;;;;20.10;79.20;;;;;;6250246;28;1150;-76
2023/06/28 02:37:52;;;;;;;;;;;20.00;78.80;;;;;;6247700;28;1417;-76
2023/06/28 02:40:55;;;;;;;;;;;19.90;78.40;;;;;;6250497;28;1136;-74
2023/06/28 02:43:57;;;;;;;;;;;19.80;79.50;;;;;;6250152;28;1100;-75
2023/06/28 02:46:58;;;;;;;;;;;19.70;78.80;;;;;;6247814;28;1349;-75
2023/06/28 02:50:04;;;;;;;;;;;19.60;80.60;;;;;;6249129;28;1991;-74
2023/06/28 02:53:05;;;;;;;;;;;19.60;81.00;;;;;;6249916;28;1117;-76
2023/06/28 02:56:12;;;;;;;;;;;19.70;82.20;;;;;;6249858;28;1056;-74
2023/06/28 02:59:15;;;;;;;;;;;19.70;81.70;;;;;;6246486;28;1408;-73
2023/06/28 03:02:16;;;;;;;;;;;19.70;82.20;;;;;;6249556;28;998;-74
2023/06/28 03:05:18;;;;;;;;;;;19.70;82.60;;;;;;6249638;28;1088;-76
2023/06/28 03:08:20;;;;;;;;;;;19.70;82.40;;;;;;6247409;28;1413;-76
2023/06/28 03:11:23;;;;;;;;;;;19.70;82.20;;;;;;6249567;28;1977;-77
2023/06/28 03:14:24;;;;;;;;;;;19.70;81.80;;;;;;6249729;28;1094;-75
2023/06/28 03:17:26;;;;;;;;;;;19.70;82.00;;;;;;6247874;28;1378;-76
2023/06/28 03:20:28;;;;;;;;;;;19.60;81.70;;;;;;6248799;28;1428;-74
2023/06/28 03:23:30;;;;;;;;;;;19.70;82.10;;;;;;6249105;28;1131;-76
2023/06/28 03:26:33;;;;;;;;;;;19.70;81.90;;;;;;6249284;28;1038;-73
2023/06/28 03:29:35;;;;;;;;;;;19.70;81.80;;;;;;6247083;28;1997;-75
2023/06/28 03:32:36;;;;;;;;;;;19.70;81.20;;;;;;6249555;28;1053;-74
2023/06/28 03:35:38;;;;;;;;;;;19.70;80.90;;;;;;6249829;28;1640;-74
2023/06/28 03:38:39;;;;;;;;;;;19.60;80.90;;;;;;6248971;28;1445;-74
2023/06/28 03:41:44;;;;;;;;;;;19.60;82.40;;;;;;6249624;28;1112;-74
2023/06/28 03:44:46;;;;;;;;;;;19.60;83.20;;;;;;6249485;28;1093;-76
2023/06/28 03:47:48;;;;;;;;;;;19.60;84.10;;;;;;6247298;28;1342;-76
2023/06/28 03:50:50;;;;;;;;;;;19.60;84.50;;;;;;6249643;28;1911;-76
2023/06/28 03:53:51;;;;;;;;;;;19.60;85.00;;;;;;6249316;28;1125;-76
2023/06/28 03:56:54;;;;;;;;;;;19.50;85.30;;;;;;6245526;28;1675;-76
2023/06/28 03:59:56;;;;;;;;;;;19.40;86.00;;;;;;6247495;28;1393;-74
2023/06/28 04:02:58;;;;;;;;;;;19.30;86.30;;;;;;6228852;28;1402;-76
2023/06/28 04:06:00;;;;;;;;;;;19.20;86.80;;;;;;6224543;28;1831;-75
2023/06/28 04:09:02;;;;;;;;;;;19.30;87.10;;;;;;6210550;28;2630;-78
2023/06/28 04:12:06;;;;;;;;;;;19.30;88.00;;;;;;6199920;28;1090;-78
2023/06/28 04:15:10;;;;;;;;;;;19.20;88.10;;;;;;6200073;28;1041;-79
2023/06/28 04:18:12;;;;;;;;;;;19.30;87.20;;;;;;6233699;28;1495;-76
2023/06/28 04:21:13;;;;;;;;;;;19.40;85.20;;;;;;6224361;28;985;-76
2023/06/28 04:24:16;;;;;;;;;;;19.40;84.20;;;;;;6224346;28;1022;-76
2023/06/28 04:27:19;;;;;;;;;;;19.40;83.90;;;;;;6227217;28;1349;-75
2023/06/28 04:30:21;;;;;;;;;;;19.50;84.00;;;;;;6242220;28;1983;-74
2023/06/28 04:33:23;;;;;;;;;;;19.50;84.30;;;;;;6248022;28;1123;-75
2023/06/28 04:36:25;;;;;;;;;;;19.50;83.70;;;;;;6249930;28;1112;-76
2023/06/28 04:39:27;;;;;;;;;;;19.40;83.00;;;;;;6253113;28;1112;-74
2023/06/28 04:42:30;;;;;;;;;;;19.40;82.30;;;;;;6253137;28;1167;-74
2023/06/28 04:45:36;;;;;;;;;;;19.40;82.30;;;;;;6253350;28;1962;-73
2023/06/28 04:48:38;;;;;;;;;;;19.30;82.40;;;;;;6253037;28;1035;-75
2023/06/28 04:51:40;;;;;;;;;;;19.30;82.10;;;;;;6252585;28;1910;-74
2023/06/28 04:54:42;;;;;;;;;;;19.40;81.60;;;;;;6252699;28;1053;-76
2023/06/28 04:57:45;;;;;;;;;;;19.40;84.60;;;;;;6252786;28;1061;-73
2023/06/28 05:00:46;;;;;;;;;;;19.30;86.50;;;;;;6244751;28;2987;-75
2023/06/28 05:03:48;;;;;;;;;;;19.20;86.60;;;;;;6211669;28;1111;-75
2023/06/28 05:06:51;;;;;;;;;;;19.20;87.50;;;;;;6203724;28;1046;-75
2023/06/28 05:09:54;;;;;;;;;;;19.20;86.40;;;;;;6203500;28;1903;-72
2023/06/28 05:12:57;;;;;;;;;;;19.20;85.00;;;;;;6203468;28;1104;-75
2023/06/28 05:15:58;;;;;;;;;;;19.20;83.90;;;;;;6203438;28;1035;-77
2023/06/28 05:19:00;;;;;;;;;;;19.20;83.40;;;;;;6203190;28;1055;-76
2023/06/28 05:22:02;;;;;;;;;;;19.20;84.60;;;;;;6202860;28;1162;-74
2023/06/28 05:25:04;;;;;;;;;;;19.20;84.70;;;;;;6204360;28;1109;-75
2023/06/28 05:28:09;;;;;;;;;;;19.20;83.40;;;;;;6203120;28;1150;-75
2023/06/28 05:31:12;;;;;;;;;;;19.20;83.20;;;;;;6202817;28;1914;-76
2023/06/28 05:34:14;;;;;;;;;;;19.20;83.40;;;;;;6202818;28;1167;-76
2023/06/28 05:37:16;;;;;;;;;;;19.20;84.10;;;;;;6203000;28;1967;-74
2023/06/28 05:40:18;;;;;;;;;;;19.20;84.00;;;;;;6202704;28;1091;-76
2023/06/28 05:43:22;;;;;;;;;;;19.30;84.70;;;;;;6202596;28;1094;-75
2023/06/28 05:46:24;;;;;;;;;;;19.30;83.60;;;;;;6202749;28;1093;-74
2023/06/28 05:49:25;;;;;;;;;;;19.30;83.90;;;;;;6201533;28;1946;-75
2023/06/28 05:52:27;;;;;;;;;;;19.30;84.50;;;;;;6202270;28;1029;-74
2023/06/28 05:55:29;;;;;;;;;;;19.30;84.60;;;;;;6202357;28;1046;-73
2023/06/28 05:58:32;;;;;;;;;;;19.30;84.60;;;;;;6202269;28;1057;-74
2023/06/28 06:01:34;;;;;;;;;;;19.30;84.70;;;;;;6202554;28;1024;-74
2023/06/28 06:04:35;;;;;;;;;;;19.40;84.70;;;;;;6202061;28;1159;-74
2023/06/28 06:07:39;;;;;;;;;;;19.40;84.90;;;;;;6202139;28;1096;-75
2023/06/28 06:10:41;;;;;;;;;;;19.50;84.60;;;;;;6201702;28;1961;-75
2023/06/28 06:13:44;;;;;;;;;;;19.60;83.60;;;;;;6201904;28;1117;-74
2023/06/28 06:16:45;;;;;;;;;;;19.60;83.50;;;;;;6201558;28;1120;-74
2023/06/28 06:19:47;;;;;;;;;;;19.60;83.90;;;;;;6201832;28;1106;-75
2023/06/28 06:22:50;;;;;;;;;;;19.50;83.80;;;;;;6201860;28;1031;-74
2023/06/28 06:25:53;;;;;;;;;;;19.50;84.70;;;;;;6202184;28;1054;-75
2023/06/28 06:28:56;;;;;;;;;;;19.40;84.90;;;;;;6201412;28;1076;-75
2023/06/28 06:31:57;;;;;;;;;;;19.50;84.10;;;;;;6201170;28;1983;-74
2023/06/28 06:35:00;;;;;;;;;;;19.50;84.80;;;;;;6201272;28;1117;-73
2023/06/28 06:38:02;;;;;;;;;;;19.60;85.10;;;;;;6201322;28;1109;-74
2023/06/28 06:41:04;;;;;;;;;;;19.60;85.90;;;;;;6201140;28;1040;-73
2023/06/28 06:44:07;;;;;;;;;;;19.80;86.10;;;;;;6201174;28;1010;-75
2023/06/28 06:47:08;;;;;;;;;;;19.90;85.70;;;;;;6201183;28;1027;-75
2023/06/28 06:50:11;;;;;;;;;;;19.90;86.20;;;;;;6201116;28;1971;-74
2023/06/28 06:53:12;;;;;;;;;;;20.10;85.40;;;;;;6201056;28;1159;-73
2023/06/28 06:56:21;;;;;;;;;;;20.00;84.20;;;;;;6200778;28;1096;-74
2023/06/28 06:59:24;;;;;;;;;;;19.90;84.50;;;;;;6200593;28;1236;-74
2023/06/28 07:02:25;;;;;;;;;;;19.90;85.40;;;;;;6201003;28;3015;-76
2023/06/28 07:05:27;;;;;;;;;;;20.00;85.60;;;;;;6201138;28;1046;-74
2023/06/28 07:08:29;;;;;;;;;;;20.10;85.80;;;;;;6201053;28;1101;-75
2023/06/28 07:11:30;;;;;;;;;;;20.10;84.40;;;;;;6200668;28;1966;-75
2023/06/28 07:14:33;;;;;;;;;;;20.20;83.70;;;;;;6200884;28;1027;-75
2023/06/28 07:17:35;;;;;;;;;;;20.30;83.80;;;;;;6201129;28;1067;-74
2023/06/28 07:20:37;;;;;;;;;;;20.30;84.10;;;;;;6200790;28;1106;-75
2023/06/28 07:23:38;;;;;;;;;;;20.40;83.40;;;;;;6200479;28;1106;-74
2023/06/28 07:26:40;;;;;;;;;;;20.50;81.90;;;;;;6200638;28;1338;-73
2023/06/28 07:29:43;;;;;;;;;;;20.50;81.90;;;;;;6200470;28;1875;-73
2023/06/28 07:32:45;;;;;;;;;;;20.60;81.30;;;;;;6200624;28;1006;-73
2023/06/28 07:35:46;;;;;;;;;;;20.60;81.40;;;;;;6200534;28;1249;-76
2023/06/28 07:38:49;;;;;;;;;;;20.70;80.60;;;;;;6200271;28;1100;-74
2023/06/28 07:41:51;;;;;;;;;;;20.70;79.60;;;;;;6200310;28;1112;-74
2023/06/28 07:44:54;;;;;;;;;;;20.70;79.40;;;;;;6200351;28;1063;-75
2023/06/28 07:47:57;;;;;;;;;;;20.70;79.10;;;;;;6200527;28;1102;-75
2023/06/28 07:50:59;;;;;;;;;;;20.70;79.00;;;;;;6200530;28;1903;-77
2023/06/28 07:54:00;;;;;;;;;;;20.60;76.90;;;;;;6200733;28;1611;-76
2023/06/28 07:57:02;;;;;;;;;;;20.60;72.60;;;;;;6200277;28;1052;-74
2023/06/28 08:00:07;;;;;;;;;;;20.60;73.10;;;;;;6200446;28;1047;-75
2023/06/28 08:03:09;;;;;;;;;;;20.60;72.10;;;;;;6200227;28;1089;-76
2023/06/28 08:06:10;;;;;;;;;;;20.50;72.10;;;;;;6200310;28;1113;-75
2023/06/28 08:09:12;;;;;;;;;;;20.50;71.60;;;;;;6213020;28;2422;-74
2023/06/28 08:12:14;;;;;;;;;;;20.60;72.80;;;;;;6226866;28;1883;-72
2023/06/28 08:15:18;;;;;;;;;;;20.60;72.40;;;;;;6228949;28;1025;-74
2023/06/28 08:18:19;;;;;;;;;;;20.70;71.50;;;;;;6228850;28;1115;-75
2023/06/28 08:21:21;;;;;;;;;;;20.60;71.90;;;;;;6228773;28;1092;-74
2023/06/28 08:24:23;;;;;;;;;;;20.70;72.00;;;;;;6228764;28;1098;-74
2023/06/28 08:27:25;;;;;;;;;;;20.80;72.50;;;;;;6228883;28;1026;-74
2023/06/28 08:30:28;;;;;;;;;;;20.90;72.70;;;;;;6228657;28;1894;-73
2023/06/28 08:33:29;;;;;;;;;;;20.90;71.70;;;;;;6228563;28;1130;-73
2023/06/28 08:36:31;;;;;;;;;;;21.00;72.30;;;;;;6228411;28;989;-74
2023/06/28 08:39:33;;;;;;;;;;;21.10;72.50;;;;;;6228680;28;1041;-75
2023/06/28 08:42:35;;;;;;;;;;;21.20;73.20;;;;;;6228298;28;1334;-75
2023/06/28 08:45:38;;;;;;;;;;;21.40;73.60;;;;;;6228240;28;1265;-74
2023/06/28 08:48:40;;;;;;;;;;;21.40;72.90;;;;;;6228019;28;1283;-74
2023/06/28 08:51:42;;;;;;;;;;;21.50;74.10;;;;;;6228039;28;1898;-74
2023/06/28 08:54:44;;;;;;;;;;;21.60;73.30;;;;;;6228106;28;1091;-74
2023/06/28 08:57:46;;;;;;;;;;;21.70;72.80;;;;;;6228038;28;1041;-74
2023/06/28 09:00:49;;;;;;;;;;;21.80;72.60;;;;;;6227887;28;1079;-75
2023/06/28 09:03:51;;;;;;;;;;;21.90;72.10;;;;;;6227917;28;1048;-75
2023/06/28 09:06:53;;;;;;;;;;;22.00;73.20;;;;;;6227713;28;1112;-75
2023/06/28 09:09:55;;;;;;;;;;;22.00;71.60;;;;;;6227893;28;1080;-73
2023/06/28 09:12:57;;;;;;;;;;;21.90;71.10;;;;;;6227691;28;1985;-74
2023/06/28 09:16:01;;;;;;;;;;;22.00;70.60;;;;;;6227763;28;1017;-74
2023/06/28 09:19:03;;;;;;;;;;;21.90;70.90;;;;;;6227739;28;1122;-72
2023/06/28 09:22:07;;;;;;;;;;;22.10;71.60;;;;;;6227771;28;1113;-72
2023/06/28 09:25:09;;;;;;;;;;;22.10;69.10;;;;;;6227928;28;1012;-73
2023/06/28 09:28:11;;;;;;;;;;;21.90;70.40;;;;;;6227569;28;1047;-75
2023/06/28 09:31:18;;;;;;;;;;;22.20;68.30;;;;;;6228823;28;1902;-75
2023/06/28 09:34:21;;;;;;;;;;;22.10;68.40;;;;;;6227619;28;1681;-74
2023/06/28 09:37:23;;;;;;;;;;;22.30;69.00;;;;;;6227841;28;1151;-73
2023/06/28 09:40:26;;;;;;;;;;;22.50;67.60;;;;;;6229184;28;1033;-75
2023/06/28 09:43:32;;;;;;;;;;;22.60;67.70;;;;;;6244328;28;1068;-77
2023/06/28 09:46:35;;;;;;;;;;;22.70;67.30;;;;;;6238000;28;1020;-73
2023/06/28 09:49:37;;;;;;;;;;;22.80;66.80;;;;;;6238657;28;1103;-77
2023/06/28 09:52:42;;;;;;;;;;;22.90;66.60;;;;;;6233143;28;1968;-75
2023/06/28 09:55:45;;;;;;;;;;;22.90;66.20;;;;;;6228093;28;1098;-74
2023/06/28 09:58:47;;;;;;;;;;;22.90;66.10;;;;;;6227214;28;1018;-73
2023/06/28 10:01:52;;;;;;;;;;;22.90;66.20;;;;;;6226658;28;1093;-76
2023/06/28 10:04:55;;;;;;;;;;;22.90;65.60;;;;;;6226616;28;1120;-74
2023/06/28 10:07:57;;;;;;;;;;;22.90;65.60;;;;;;6226401;28;1043;-74
2023/06/28 10:10:59;;;;;;;;;;;23.10;65.70;;;;;;6226376;28;1981;-75
2023/06/28 10:14:01;;;;;;;;;;;23.20;66.00;;;;;;6226080;28;1167;-74
2023/06/28 10:17:04;;;;;;;;;;;23.00;66.00;;;;;;6225905;28;1251;-74
2023/06/28 10:20:08;;;;;;;;;;;23.10;64.70;;;;;;6226236;28;1308;-73
2023/06/28 10:23:11;;;;;;;;;;;23.30;65.90;;;;;;6228592;28;1025;-74
2023/06/28 10:26:13;;;;;;;;;;;23.20;65.30;;;;;;6237794;28;1040;-77
2023/06/28 10:29:15;;;;;;;;;;;23.20;65.40;;;;;;6232636;28;1068;-76
2023/06/28 10:32:19;;;;;;;;;;;23.30;64.70;;;;;;6232521;28;1903;-76
2023/06/28 10:35:20;;;;;;;;;;;23.30;63.70;;;;;;6225485;28;1275;-74
2023/06/28 10:38:22;;;;;;;;;;;23.20;64.20;;;;;;6225937;28;1075;-74
2023/06/28 10:41:25;;;;;;;;;;;23.20;64.60;;;;;;6225778;28;1075;-75
2023/06/28 10:44:27;;;;;;;;;;;23.10;65.40;;;;;;6225864;28;1009;-74
2023/06/28 10:47:34;;;;;;;;;;;23.20;65.20;;;;;;6225614;28;1014;-75
2023/06/28 10:50:42;;;;;;;;;;;23.20;65.50;;;;;;6225562;28;1985;-74
2023/06/28 10:53:52;;;;;;;;;;;23.30;66.40;;;;;;6225405;28;1089;-75
2023/06/28 10:56:55;;;;;;;;;;;23.20;64.40;;;;;;6225389;28;989;-74
2023/06/28 10:59:57;;;;;;;;;;;23.20;65.00;;;;;;6225286;28;1078;-76
2023/06/28 11:03:03;;;;;;;;;;;23.30;65.00;;;;;;6225110;28;1271;-74
2023/06/28 11:06:05;;;;;;;;;;;23.30;65.20;;;;;;6225216;28;1096;-75
2023/06/28 11:09:13;;;;;;;;;;;23.20;65.70;;;;;;6225114;28;1085;-74
2023/06/28 11:12:19;;;;;;;;;;;23.30;64.80;;;;;;6224927;28;1983;-74
2023/06/28 11:15:27;;;;;;;;;;;23.40;64.50;;;;;;6225042;28;1084;-73
2023/06/28 11:18:31;;;;;;;;;;;23.30;64.20;;;;;;6225185;28;1112;-75
2023/06/28 11:21:33;;;;;;;;;;;23.30;65.90;;;;;;6225202;28;1033;-74
2023/06/28 11:24:44;;;;;;;;;;;23.30;65.10;;;;;;6225025;28;1025;-73
2023/06/28 11:27:46;;;;;;;;;;;23.40;66.60;;;;;;6224946;28;1099;-73
2023/06/28 11:30:50;;;;;;;;;;;23.50;64.80;;;;;;6224932;28;1902;-75
2023/06/28 11:33:55;;;;;;;;;;;23.60;64.60;;;;;;6224791;28;1272;-75
2023/06/28 11:36:57;;;;;;;;;;;23.70;63.50;;;;;;6224923;28;1064;-74
2023/06/28 11:39:59;;;;;;;;;;;23.80;64.40;;;;;;6224797;28;1033;-75
2023/06/28 11:43:01;;;;;;;;;;;23.80;62.90;;;;;;6225114;28;1085;-75
2023/06/28 11:46:02;;;;;;;;;;;23.80;62.40;;;;;;6225075;28;1042;-74
2023/06/28 11:49:06;;;;;;;;;;;23.80;63.30;;;;;;6229911;28;1030;-75
2023/06/28 11:52:08;;;;;;;;;;;23.70;63.30;;;;;;6229592;28;1988;-75
2023/06/28 11:55:10;;;;;;;;;;;23.80;63.90;;;;;;6229490;28;1104;-73
2023/06/28 11:58:12;;;;;;;;;;;23.90;63.40;;;;;;6229582;28;1041;-74
2023/06/28 12:01:22;;;;;;;;;;;24.10;62.90;;;;;;6229659;28;1067;-74
2023/06/28 12:04:25;;;;;;;;;;;24.20;61.80;;;;;;6229305;28;1143;-77
2023/06/28 12:07:26;;;;;;;;;;;24.30;60.50;;;;;;6229088;28;1038;-74
2023/06/28 12:10:35;;;;;;;;;;;24.20;61.00;;;;;;6229343;28;1067;-76
2023/06/28 12:13:37;;;;;;;;;;;24.30;61.30;;;;;;6229008;28;1985;-75
2023/06/28 12:16:40;;;;;;;;;;;24.30;61.10;;;;;;6229109;28;1025;-75
2023/06/28 12:19:45;;;;;;;;;;;24.20;61.30;;;;;;6229031;28;1025;-76
2023/06/28 12:22:46;;;;;;;;;;;24.30;60.80;;;;;;6229010;28;1048;-76
2023/06/28 12:25:48;;;;;;;;;;;24.40;60.40;;;;;;6229011;28;1080;-76
2023/06/28 12:28:50;;;;;;;;;;;24.60;61.10;;;;;;6228804;28;1099;-77
2023/06/28 12:31:53;;;;;;;;;;;24.70;61.30;;;;;;6228527;28;1975;-75
2023/06/28 12:34:56;;;;;;;;;;;24.90;61.80;;;;;;6229225;28;1301;-74
2023/06/28 12:37:59;;;;;;;;;;;25.00;61.30;;;;;;6230402;28;1063;-74
2023/06/28 12:41:05;;;;;;;;;;;25.30;59.60;;;;;;6228610;28;1922;-73
2023/06/28 12:44:07;;;;;;;;;;;25.30;58.90;;;;;;6231483;28;1034;-74
2023/06/28 12:47:08;;;;;;;;;;;25.40;58.60;;;;;;6231472;28;1079;-74
2023/06/28 12:50:11;;;;;;;;;;;25.50;58.90;;;;;;6232468;28;1081;-74
2023/06/28 12:53:13;;;;;;;;;;;25.50;58.50;;;;;;6231550;28;1902;-74
2023/06/28 12:56:15;;;;;;;;;;;25.00;58.80;;;;;;6228354;28;1053;-75
2023/06/28 12:59:17;;;;;;;;;;;25.10;59.70;;;;;;6227415;28;1191;-75
2023/06/28 13:02:19;;;;;;;;;;;25.20;59.40;;;;;;6228107;28;1046;-74
2023/06/28 13:05:22;;;;;;;;;;;25.40;59.50;;;;;;6227748;28;1350;-75
2023/06/28 13:08:25;;;;;;;;;;;25.40;59.60;;;;;;6228138;28;1109;-75
2023/06/28 13:11:31;;;;;;;;;;;25.40;58.50;;;;;;6228117;28;1898;-74
2023/06/28 13:14:32;;;;;;;;;;;25.30;58.80;;;;;;6228025;28;1067;-74
2023/06/28 13:17:34;;;;;;;;;;;25.30;59.30;;;;;;6227507;28;1303;-74
2023/06/28 13:20:37;;;;;;;;;;;25.70;59.30;;;;;;6227531;28;973;-76
2023/06/28 13:23:39;;;;;;;;;;;26.10;58.50;;;;;;6227137;28;1297;-74
2023/06/28 13:26:40;;;;;;;;;;;26.30;57.70;;;;;;6227438;28;1088;-73
2023/06/28 13:29:42;;;;;;;;;;;26.40;56.80;;;;;;6227497;28;1022;-74
2023/06/28 13:32:45;;;;;;;;;;;26.60;57.10;;;;;;6227151;28;1894;-73
2023/06/28 13:35:48;;;;;;;;;;;26.60;56.20;;;;;;6227016;28;1122;-73
2023/06/28 13:38:50;;;;;;;;;;;26.70;56.70;;;;;;6226753;28;1161;-74
2023/06/28 13:41:51;;;;;;;;;;;26.30;56.10;;;;;;6227147;28;1104;-75
2023/06/28 13:44:53;;;;;;;;;;;26.10;56.60;;;;;;6226817;28;1050;-75
2023/06/28 13:47:55;;;;;;;;;;;26.40;55.90;;;;;;6226966;28;1026;-75
2023/06/28 13:50:58;;;;;;;;;;;26.60;55.90;;;;;;6226811;28;1014;-76
2023/06/28 13:54:00;;;;;;;;;;;27.00;55.70;;;;;;6226538;28;1985;-74
2023/06/28 13:57:01;;;;;;;;;;;27.00;55.10;;;;;;6226543;28;1124;-74
2023/06/28 14:00:04;;;;;;;;;;;27.20;57.60;;;;;;6226769;28;1091;-74
2023/06/28 14:03:05;;;;;;;;;;;27.30;54.90;;;;;;6226413;28;1155;-72
2023/06/28 14:06:08;;;;;;;;;;;27.60;56.60;;;;;;6226327;28;1038;-75
2023/06/28 14:09:10;;;;;;;;;;;27.70;55.30;;;;;;6225431;28;1110;-76
2023/06/28 14:12:13;;;;;;;;;;;27.70;53.20;;;;;;6226061;28;1899;-75
2023/06/28 14:15:15;;;;;;;;;;;27.50;53.90;;;;;;6226348;28;1029;-74
2023/06/28 14:18:17;;;;;;;;;;;27.90;53.60;;;;;;6226138;28;1121;-74
2023/06/28 14:21:20;;;;;;;;;;;28.20;53.20;;;;;;6225995;28;1095;-75
2023/06/28 14:24:21;;;;;;;;;;;28.30;52.90;;;;;;6226093;28;1023;-74
2023/06/28 14:27:23;;;;;;;;;;;28.30;53.00;;;;;;6226228;28;1061;-75
2023/06/28 14:30:25;;;;;;;;;;;28.40;53.50;;;;;;6225806;28;1080;-73
2023/06/28 14:33:27;;;;;;;;;;;28.50;52.70;;;;;;6225952;28;1902;-74
2023/06/28 14:36:32;;;;;;;;;;;28.80;51.70;;;;;;6225794;28;1266;-75
2023/06/28 14:39:34;;;;;;;;;;;28.60;51.50;;;;;;6226243;28;986;-75
2023/06/28 14:42:36;;;;;;;;;;;28.20;53.40;;;;;;6225768;28;1085;-76
2023/06/28 14:45:38;;;;;;;;;;;28.40;53.30;;;;;;6225655;28;1124;-75
2023/06/28 14:48:39;;;;;;;;;;;28.90;51.40;;;;;;6225721;28;1149;-74
2023/06/28 14:51:42;;;;;;;;;;;28.70;52.10;;;;;;6225544;28;1011;-76
2023/06/28 14:54:44;;;;;;;;;;;29.10;50.40;;;;;;6232290;28;1417;-76
2023/06/28 14:57:45;;;;;;;;;;;29.30;50.40;;;;;;6235229;28;1365;-71
2023/06/28 15:00:47;;;;;;;;;;;29.00;51.50;;;;;;6234466;28;1457;-78
2023/06/28 15:03:49;;;;;;;;;;;29.30;51.40;;;;;;6213572;28;1469;-76
2023/06/28 15:06:52;;;;;;;;;;;29.20;50.30;;;;;;6228377;28;1445;-76
2023/06/28 15:09:54;;;;;;;;;;;29.20;51.00;;;;;;6221916;28;1036;-78
2023/06/28 15:12:55;;;;;;;;;;;29.00;49.10;;;;;;6221555;28;1983;-77
2023/06/28 15:15:57;;;;;;;;;;;28.90;50.00;;;;;;6223477;28;1783;-76
2023/06/28 15:18:58;;;;;;;;;;;28.90;49.90;;;;;;6244446;28;1088;-76
2023/06/28 15:22:02;;;;;;;;;;;29.10;50.00;;;;;;6245958;28;2073;-76
2023/06/28 15:25:04;;;;;;;;;;;29.20;49.80;;;;;;6220905;28;1365;-78
2023/06/28 15:28:06;;;;;;;;;;;29.30;49.60;;;;;;6217894;28;1832;-79
2023/06/28 15:31:07;;;;;;;;;;;29.10;49.80;;;;;;6224170;28;1322;-76
2023/06/28 15:34:09;;;;;;;;;;;29.20;50.00;;;;;;6223637;28;2099;-79
2023/06/28 15:37:12;;;;;;;;;;;29.20;49.20;;;;;;6226063;28;1042;-78
2023/06/28 15:40:14;;;;;;;;;;;28.80;48.60;;;;;;6248941;28;1498;-76
2023/06/28 15:43:16;;;;;;;;;;;29.10;48.90;;;;;;6248828;28;1267;-76
2023/06/28 15:46:29;;;;;;;;;;;28.90;48.50;;;;;;6233332;28;1337;-77
2023/06/28 15:49:31;;;;;;;;;;;28.90;48.80;;;;;;6224317;28;1358;-77
2023/06/28 15:52:34;;;;;;;;;;;29.20;49.30;;;;;;6224455;28;1981;-77
2023/06/28 15:55:36;;;;;;;;;;;29.40;48.80;;;;;;6224924;28;1109;-77
2023/06/28 15:58:37;;;;;;;;;;;29.30;48.90;;;;;;6224245;28;1084;-78
2023/06/28 16:01:39;;;;;;;;;;;29.00;49.30;;;;;;6224175;28;1157;-77
2023/06/28 16:04:41;;;;;;;;;;;29.30;48.90;;;;;;6224239;28;1021;-77
2023/06/28 16:07:44;;;;;;;;;;;29.30;49.20;;;;;;6224214;28;1107;-77
2023/06/28 16:10:45;;;;;;;;;;;29.00;49.30;;;;;;6237807;28;1461;-77
2023/06/28 16:13:47;;;;;;;;;;;28.70;49.80;;;;;;6228299;28;1918;-78
2023/06/28 16:16:49;;;;;;;;;;;28.70;49.80;;;;;;6224017;28;1108;-77
2023/06/28 16:19:50;;;;;;;;;;;28.70;50.00;;;;;;6232950;28;1433;-77
2023/06/28 16:22:53;;;;;;;;;;;28.30;50.40;;;;;;6248639;28;1036;-76
2023/06/28 16:25:55;;;;;;;;;;;28.30;50.30;;;;;;6248759;28;1035;-77
2023/06/28 16:28:57;;;;;;;;;;;27.90;50.80;;;;;;6244344;28;1374;-77
2023/06/28 16:31:59;;;;;;;;;;;27.90;50.60;;;;;;6223452;28;1661;-77
2023/06/28 16:35:00;;;;;;;;;;;27.70;50.60;;;;;;6228589;28;2458;-77
2023/06/28 16:38:03;;;;;;;;;;;27.50;51.30;;;;;;6223550;28;2549;-78
2023/06/28 16:41:05;;;;;;;;;;;27.60;51.10;;;;;;6228545;28;1743;-78
2023/06/28 16:44:06;;;;;;;;;;;27.80;51.30;;;;;;6229430;28;2150;-78
2023/06/28 16:47:08;;;;;;;;;;;27.80;51.60;;;;;;6228324;28;1061;-77
2023/06/28 16:50:10;;;;;;;;;;;27.80;52.00;;;;;;6227648;28;1088;-77
2023/06/28 16:53:13;;;;;;;;;;;27.70;52.00;;;;;;6234969;28;1989;-78
2023/06/28 16:56:15;;;;;;;;;;;27.50;51.50;;;;;;6235940;28;2339;-77
2023/06/28 16:59:18;;;;;;;;;;;27.50;52.30;;;;;;6238139;28;1739;-75
2023/06/28 17:02:19;;;;;;;;;;;27.70;52.10;;;;;;6251854;28;1261;-78
2023/06/28 17:05:21;;;;;;;;;;;27.40;52.20;;;;;;6235164;28;1353;-77
2023/06/28 17:08:24;;;;;;;;;;;27.40;51.90;;;;;;6226349;28;1568;-79
2023/06/28 17:11:26;;;;;;;;;;;27.20;52.70;;;;;;6226436;28;2410;-79
2023/06/28 17:14:27;;;;;;;;;;;27.30;52.50;;;;;;6209690;28;3038;-77
2023/06/28 17:17:29;;;;;;;;;;;27.20;52.90;;;;;;6203064;28;2973;-75
2023/06/28 17:20:31;;;;;;;;;;;27.10;53.30;;;;;;6215177;28;1599;-77
2023/06/28 17:23:34;;;;;;;;;;;27.20;52.90;;;;;;6227692;28;1569;-77
2023/06/28 17:26:35;;;;;;;;;;;27.10;52.60;;;;;;6227027;28;1470;-80
2023/06/28 17:29:37;;;;;;;;;;;27.20;53.10;;;;;;6222540;28;2308;-77
2023/06/28 17:32:39;;;;;;;;;;;26.90;53.20;;;;;;6226997;28;1973;-79
2023/06/28 17:35:40;;;;;;;;;;;26.80;54.00;;;;;;6223051;28;3032;-78
2023/06/28 17:38:44;;;;;;;;;;;27.10;53.80;;;;;;6202930;28;1050;-77
2023/06/28 17:41:45;;;;;;;;;;;27.30;53.80;;;;;;6231622;28;2627;-77
2023/06/28 17:44:47;;;;;;;;;;;27.10;54.60;;;;;;6226660;28;1710;-79
2023/06/28 17:47:49;;;;;;;;;;;27.20;54.20;;;;;;6227633;28;1687;-77
2023/06/28 17:50:50;;;;;;;;;;;27.20;53.40;;;;;;6247772;28;1590;-77
2023/06/28 17:53:53;;;;;;;;;;;27.50;53.80;;;;;;6234267;28;2512;-78
2023/06/28 17:56:55;;;;;;;;;;;27.50;53.10;;;;;;6224001;28;1519;-71
2023/06/28 17:59:57;;;;;;;;;;;27.70;55.80;;;;;;6234255;28;1500;-71